sensor_id;sensor_type;location;lat;lon;timestamp;P1;P2;P0
57289;PMS5003;43523;53.022;-1.178;2023-05-19T00:00:56;21;18;
57289;PMS5003;43523;53.022;-1.178;2023-05-19T00:01:59;22;18;
57289;PMS5003;43523;53.022;-1.178;2023-05-19T00:03:02;24;24;
57289;PMS5003;43523;53.022;-1.178;2023-05-19T00:04:05;22;20;
57289;PMS5003;43523;53.022;-1.178;2023-05-19T00:05:08;23;20;
57289;PMS5003;43523;53.022;-1.178;2023-05-19T00:06:11;24;19;
57289;PMS5003;43523;53.022;-1.178;2023-05-19T00:07:15;20;18;
57289;PMS5003;43523;53.022;-1.178;2023-05-19T00:08:19;24;21;
57289;PMS5003;43523;53.022;-1.178;2023-05-19T00:09:24;23;20;
57289;PMS5003;43523;53.022;-1.178;2023-05-19T00:10:27;24;19;
57289;PMS5003;43523;53.022;-1.178;2023-05-19T00:11:30;28;24;
57289;PMS5003;43523;53.022;-1.178;2023-05-19T00:12:34;25;18;
57289;PMS5003;43523;53.022;-1.178;2023-05-19T00:13:38;25;23;
57289;PMS5003;43523;53.022;-1.178;2023-05-19T00:14:40;25;20;
57289;PMS5003;43523;53.022;-1.178;2023-05-19T00:15:44;29;24;
57289;PMS5003;43523;53.022;-1.178;2023-05-19T00:16:47;22;20;
57289;PMS5003;43523;53.022;-1.178;2023-05-19T00:17:51;20;18;
57289;PMS5003;43523;53.022;-1.178;2023-05-19T00:18:52;22;22;
57289;PMS5003;43523;53.022;-1.178;2023-05-19T00:19:55;23;20;
57289;PMS5003;43523;53.022;-1.178;2023-05-19T00:20:57;26;24;
57289;PMS5003;43523;53.022;-1.178;2023-05-19T00:22:00;22;18;
57289;PMS5003;43523;53.022;-1.178;2023-05-19T00:23:02;19;18;
57289;PMS5003;43523;53.022;-1.178;2023-05-19T00:24:04;22;17;
57289;PMS5003;43523;53.022;-1.178;2023-05-19T00:25:08;22;21;
57289;PMS5003;43523;53.022;-1.178;2023-05-19T00:26:11;26;24;
57289;PMS5003;43523;53.022;-1.178;2023-05-19T00:27:13;23;22;
57289;PMS5003;43523;53.022;-1.178;2023-05-19T00:28:16;20;18;
57289;PMS5003;43523;53.022;-1.178;2023-05-19T00:29:18;17;16;
57289;PMS5003;43523;53.022;-1.178;2023-05-19T00:30:21;19;18;
57289;PMS5003;43523;53.022;-1.178;2023-05-19T00:31:28;21;20;
57289;PMS5003;43523;53.022;-1.178;2023-05-19T00:32:30;21;20;
57289;PMS5003;43523;53.022;-1.178;2023-05-19T00:33:33;24;21;
57289;PMS5003;43523;53.022;-1.178;2023-05-19T00:34:35;22;19;
57289;PMS5003;43523;53.022;-1.178;2023-05-19T00:35:38;21;18;
57289;PMS5003;43523;53.022;-1.178;2023-05-19T00:36:40;26;22;
57289;PMS5003;43523;53.022;-1.178;2023-05-19T00:37:43;23;19;
57289;PMS5003;43523;53.022;-1.178;2023-05-19T00:38:46;20;16;
57289;PMS5003;43523;53.022;-1.178;2023-05-19T00:39:48;24;17;
57289;PMS5003;43523;53.022;-1.178;2023-05-19T00:40:50;23;17;
57289;PMS5003;43523;53.022;-1.178;2023-05-19T00:41:52;24;20;
57289;PMS5003;43523;53.022;-1.178;2023-05-19T00:42:55;22;19;
57289;PMS5003;43523;53.022;-1.178;2023-05-19T00:43:57;23;20;
57289;PMS5003;43523;53.022;-1.178;2023-05-19T00:45:00;23;18;
57289;PMS5003;43523;53.022;-1.178;2023-05-19T00:46:02;20;20;
57289;PMS5003;43523;53.022;-1.178;2023-05-19T00:47:05;22;19;
57289;PMS5003;43523;53.022;-1.178;2023-05-19T00:48:07;21;17;
57289;PMS5003;43523;53.022;-1.178;2023-05-19T00:49:10;21;17;
57289;PMS5003;43523;53.022;-1.178;2023-05-19T00:50:12;26;21;
57289;PMS5003;43523;53.022;-1.178;2023-05-19T00:51:15;25;18;
57289;PMS5003;43523;53.022;-1.178;2023-05-19T00:52:18;30;21;
57289;PMS5003;43523;53.022;-1.178;2023-05-19T00:53:20;24;19;
57289;PMS5003;43523;53.022;-1.178;2023-05-19T00:54:24;17;15;
57289;PMS5003;43523;53.022;-1.178;2023-05-19T00:55:27;17;15;
57289;PMS5003;43523;53.022;-1.178;2023-05-19T00:56:32;22;19;
57289;PMS5003;43523;53.022;-1.178;2023-05-19T00:57:34;20;18;
57289;PMS5003;43523;53.022;-1.178;2023-05-19T00:58:37;19;17;
57289;PMS5003;43523;53.022;-1.178;2023-05-19T00:59:40;22;21;
57289;PMS5003;43523;53.022;-1.178;2023-05-19T01:00:43;20;16;
57289;PMS5003;43523;53.022;-1.178;2023-05-19T01:01:47;21;19;
57289;PMS5003;43523;53.022;-1.178;2023-05-19T01:02:50;22;20;
57289;PMS5003;43523;53.022;-1.178;2023-05-19T01:03:53;20;17;
57289;PMS5003;43523;53.022;-1.178;2023-05-19T01:04:56;19;17;
57289;PMS5003;43523;53.022;-1.178;2023-05-19T01:06:00;22;20;
57289;PMS5003;43523;53.022;-1.178;2023-05-19T01:07:03;21;18;
57289;PMS5003;43523;53.022;-1.178;2023-05-19T01:08:07;22;17;
57289;PMS5003;43523;53.022;-1.178;2023-05-19T01:09:10;23;18;
57289;PMS5003;43523;53.022;-1.178;2023-05-19T01:10:13;21;18;
57289;PMS5003;43523;53.022;-1.178;2023-05-19T01:11:15;20;17;
57289;PMS5003;43523;53.022;-1.178;2023-05-19T01:12:17;21;21;
57289;PMS5003;43523;53.022;-1.178;2023-05-19T01:13:20;22;18;
57289;PMS5003;43523;53.022;-1.178;2023-05-19T01:14:23;28;21;
57289;PMS5003;43523;53.022;-1.178;2023-05-19T01:15:25;22;20;
57289;PMS5003;43523;53.022;-1.178;2023-05-19T01:16:30;18;16;
57289;PMS5003;43523;53.022;-1.178;2023-05-19T01:17:43;28;19;
57289;PMS5003;43523;53.022;-1.178;2023-05-19T01:18:57;21;17;
57289;PMS5003;43523;53.022;-1.178;2023-05-19T01:20:06;18;18;
57289;PMS5003;43523;53.022;-1.178;2023-05-19T01:21:25;21;20;
57289;PMS5003;43523;53.022;-1.178;2023-05-19T01:23:06;21;19;
57289;PMS5003;43523;53.022;-1.178;2023-05-19T01:24:25;20;15;
57289;PMS5003;43523;53.022;-1.178;2023-05-19T01:25:59;21;18;
57289;PMS5003;43523;53.022;-1.178;2023-05-19T01:27:34;20;18;
57289;PMS5003;43523;53.022;-1.178;2023-05-19T01:29:04;24;18;
57289;PMS5003;43523;53.022;-1.178;2023-05-19T01:30:21;21;20;
57289;PMS5003;43523;53.022;-1.178;2023-05-19T01:31:27;24;20;
57289;PMS5003;43523;53.022;-1.178;2023-05-19T01:32:30;23;19;
57289;PMS5003;43523;53.022;-1.178;2023-05-19T01:33:34;19;17;
57289;PMS5003;43523;53.022;-1.178;2023-05-19T01:34:38;17;14;
57289;PMS5003;43523;53.022;-1.178;2023-05-19T01:35:44;21;16;
57289;PMS5003;43523;53.022;-1.178;2023-05-19T01:36:49;18;16;
57289;PMS5003;43523;53.022;-1.178;2023-05-19T01:37:55;26;19;
57289;PMS5003;43523;53.022;-1.178;2023-05-19T01:38:59;18;16;
57289;PMS5003;43523;53.022;-1.178;2023-05-19T01:40:03;17;15;
57289;PMS5003;43523;53.022;-1.178;2023-05-19T01:41:12;20;17;
57289;PMS5003;43523;53.022;-1.178;2023-05-19T01:42:15;19;17;
57289;PMS5003;43523;53.022;-1.178;2023-05-19T01:43:30;26;21;
57289;PMS5003;43523;53.022;-1.178;2023-05-19T01:44:36;20;19;
57289;PMS5003;43523;53.022;-1.178;2023-05-19T01:45:39;15;14;
57289;PMS5003;43523;53.022;-1.178;2023-05-19T01:46:42;22;19;
57289;PMS5003;43523;53.022;-1.178;2023-05-19T01:47:46;21;18;
57289;PMS5003;43523;53.022;-1.178;2023-05-19T01:48:55;20;17;
57289;PMS5003;43523;53.022;-1.178;2023-05-19T01:49:57;23;19;
57289;PMS5003;43523;53.022;-1.178;2023-05-19T01:51:00;25;17;
57289;PMS5003;43523;53.022;-1.178;2023-05-19T01:52:02;18;16;
57289;PMS5003;43523;53.022;-1.178;2023-05-19T01:53:05;19;16;
57289;PMS5003;43523;53.022;-1.178;2023-05-19T01:54:08;18;14;
57289;PMS5003;43523;53.022;-1.178;2023-05-19T01:55:10;22;17;
57289;PMS5003;43523;53.022;-1.178;2023-05-19T01:56:13;20;19;
57289;PMS5003;43523;53.022;-1.178;2023-05-19T01:57:23;20;19;
57289;PMS5003;43523;53.022;-1.178;2023-05-19T01:58:36;20;17;
57289;PMS5003;43523;53.022;-1.178;2023-05-19T01:59:46;21;15;
57289;PMS5003;43523;53.022;-1.178;2023-05-19T02:00:56;19;16;
57289;PMS5003;43523;53.022;-1.178;2023-05-19T02:02:04;23;18;
57289;PMS5003;43523;53.022;-1.178;2023-05-19T02:03:18;18;16;
57289;PMS5003;43523;53.022;-1.178;2023-05-19T02:04:29;20;14;
57289;PMS5003;43523;53.022;-1.178;2023-05-19T02:05:43;19;15;
57289;PMS5003;43523;53.022;-1.178;2023-05-19T02:06:54;16;14;
57289;PMS5003;43523;53.022;-1.178;2023-05-19T02:08:05;21;18;
57289;PMS5003;43523;53.022;-1.178;2023-05-19T02:09:15;20;17;
57289;PMS5003;43523;53.022;-1.178;2023-05-19T02:10:25;20;20;
57289;PMS5003;43523;53.022;-1.178;2023-05-19T02:11:32;23;23;
57289;PMS5003;43523;53.022;-1.178;2023-05-19T02:12:37;22;18;
57289;PMS5003;43523;53.022;-1.178;2023-05-19T02:13:42;21;18;
57289;PMS5003;43523;53.022;-1.178;2023-05-19T02:14:54;18;14;
57289;PMS5003;43523;53.022;-1.178;2023-05-19T02:16:04;26;21;
57289;PMS5003;43523;53.022;-1.178;2023-05-19T02:17:07;25;17;
57289;PMS5003;43523;53.022;-1.178;2023-05-19T02:18:13;24;20;
57289;PMS5003;43523;53.022;-1.178;2023-05-19T02:19:21;20;18;
57289;PMS5003;43523;53.022;-1.178;2023-05-19T02:20:24;21;18;
57289;PMS5003;43523;53.022;-1.178;2023-05-19T02:21:27;22;19;
57289;PMS5003;43523;53.022;-1.178;2023-05-19T02:22:29;24;19;
57289;PMS5003;43523;53.022;-1.178;2023-05-19T02:23:31;25;18;
57289;PMS5003;43523;53.022;-1.178;2023-05-19T02:24:33;20;17;
57289;PMS5003;43523;53.022;-1.178;2023-05-19T02:25:36;21;18;
57289;PMS5003;43523;53.022;-1.178;2023-05-19T02:26:39;17;16;
57289;PMS5003;43523;53.022;-1.178;2023-05-19T02:27:42;23;19;
57289;PMS5003;43523;53.022;-1.178;2023-05-19T02:28:48;24;17;
57289;PMS5003;43523;53.022;-1.178;2023-05-19T02:29:51;28;18;
57289;PMS5003;43523;53.022;-1.178;2023-05-19T02:30:54;22;21;
57289;PMS5003;43523;53.022;-1.178;2023-05-19T02:31:57;22;16;
57289;PMS5003;43523;53.022;-1.178;2023-05-19T02:33:01;25;19;
57289;PMS5003;43523;53.022;-1.178;2023-05-19T02:34:04;26;19;
57289;PMS5003;43523;53.022;-1.178;2023-05-19T02:35:06;20;19;
57289;PMS5003;43523;53.022;-1.178;2023-05-19T02:36:10;24;19;
57289;PMS5003;43523;53.022;-1.178;2023-05-19T02:37:13;17;17;
57289;PMS5003;43523;53.022;-1.178;2023-05-19T02:38:16;18;17;
57289;PMS5003;43523;53.022;-1.178;2023-05-19T02:39:18;19;16;
57289;PMS5003;43523;53.022;-1.178;2023-05-19T02:40:21;23;19;
57289;PMS5003;43523;53.022;-1.178;2023-05-19T02:41:23;17;17;
57289;PMS5003;43523;53.022;-1.178;2023-05-19T02:42:25;16;15;
57289;PMS5003;43523;53.022;-1.178;2023-05-19T02:43:27;19;17;
57289;PMS5003;43523;53.022;-1.178;2023-05-19T02:44:29;22;19;
57289;PMS5003;43523;53.022;-1.178;2023-05-19T02:45:32;20;19;
57289;PMS5003;43523;53.022;-1.178;2023-05-19T02:46:34;19;19;
57289;PMS5003;43523;53.022;-1.178;2023-05-19T02:47:36;20;17;
57289;PMS5003;43523;53.022;-1.178;2023-05-19T02:48:40;20;18;
57289;PMS5003;43523;53.022;-1.178;2023-05-19T02:49:43;21;18;
57289;PMS5003;43523;53.022;-1.178;2023-05-19T02:50:46;20;18;
57289;PMS5003;43523;53.022;-1.178;2023-05-19T02:51:48;22;21;
57289;PMS5003;43523;53.022;-1.178;2023-05-19T02:52:50;25;20;
57289;PMS5003;43523;53.022;-1.178;2023-05-19T02:53:54;20;16;
57289;PMS5003;43523;53.022;-1.178;2023-05-19T02:54:56;20;18;
57289;PMS5003;43523;53.022;-1.178;2023-05-19T02:55:58;24;18;
57289;PMS5003;43523;53.022;-1.178;2023-05-19T02:57:00;18;16;
57289;PMS5003;43523;53.022;-1.178;2023-05-19T02:58:03;24;19;
57289;PMS5003;43523;53.022;-1.178;2023-05-19T02:59:06;17;16;
57289;PMS5003;43523;53.022;-1.178;2023-05-19T03:00:13;17;15;
57289;PMS5003;43523;53.022;-1.178;2023-05-19T03:01:16;16;14;
57289;PMS5003;43523;53.022;-1.178;2023-05-19T03:02:18;22;18;
57289;PMS5003;43523;53.022;-1.178;2023-05-19T03:03:21;17;14;
57289;PMS5003;43523;53.022;-1.178;2023-05-19T03:04:23;15;14;
57289;PMS5003;43523;53.022;-1.178;2023-05-19T03:05:25;18;16;
57289;PMS5003;43523;53.022;-1.178;2023-05-19T03:06:28;19;15;
57289;PMS5003;43523;53.022;-1.178;2023-05-19T03:07:31;21;20;
57289;PMS5003;43523;53.022;-1.178;2023-05-19T03:08:34;17;16;
57289;PMS5003;43523;53.022;-1.178;2023-05-19T03:09:37;15;12;
57289;PMS5003;43523;53.022;-1.178;2023-05-19T03:10:40;21;16;
57289;PMS5003;43523;53.022;-1.178;2023-05-19T03:11:42;19;18;
57289;PMS5003;43523;53.022;-1.178;2023-05-19T03:12:45;14;14;
57289;PMS5003;43523;53.022;-1.178;2023-05-19T03:13:47;21;16;
57289;PMS5003;43523;53.022;-1.178;2023-05-19T03:14:50;18;15;
57289;PMS5003;43523;53.022;-1.178;2023-05-19T03:15:52;18;14;
57289;PMS5003;43523;53.022;-1.178;2023-05-19T03:16:55;19;16;
57289;PMS5003;43523;53.022;-1.178;2023-05-19T03:17:57;17;14;
57289;PMS5003;43523;53.022;-1.178;2023-05-19T03:19:00;18;15;
57289;PMS5003;43523;53.022;-1.178;2023-05-19T03:20:02;15;15;
57289;PMS5003;43523;53.022;-1.178;2023-05-19T03:21:05;20;17;
57289;PMS5003;43523;53.022;-1.178;2023-05-19T03:22:07;16;14;
57289;PMS5003;43523;53.022;-1.178;2023-05-19T03:23:10;15;14;
57289;PMS5003;43523;53.022;-1.178;2023-05-19T03:24:12;17;17;
57289;PMS5003;43523;53.022;-1.178;2023-05-19T03:25:14;17;17;
57289;PMS5003;43523;53.022;-1.178;2023-05-19T03:26:17;21;18;
57289;PMS5003;43523;53.022;-1.178;2023-05-19T03:27:20;18;15;
57289;PMS5003;43523;53.022;-1.178;2023-05-19T03:28:22;15;11;
57289;PMS5003;43523;53.022;-1.178;2023-05-19T03:29:24;16;15;
57289;PMS5003;43523;53.022;-1.178;2023-05-19T03:30:26;16;11;
57289;PMS5003;43523;53.022;-1.178;2023-05-19T03:31:29;19;16;
57289;PMS5003;43523;53.022;-1.178;2023-05-19T03:32:31;21;16;
57289;PMS5003;43523;53.022;-1.178;2023-05-19T03:33:34;18;15;
57289;PMS5003;43523;53.022;-1.178;2023-05-19T03:34:37;15;13;
57289;PMS5003;43523;53.022;-1.178;2023-05-19T03:35:40;16;14;
57289;PMS5003;43523;53.022;-1.178;2023-05-19T03:36:42;19;13;
57289;PMS5003;43523;53.022;-1.178;2023-05-19T03:37:46;14;12;
57289;PMS5003;43523;53.022;-1.178;2023-05-19T03:38:48;15;15;
57289;PMS5003;43523;53.022;-1.178;2023-05-19T03:39:51;18;12;
57289;PMS5003;43523;53.022;-1.178;2023-05-19T03:40:54;17;15;
57289;PMS5003;43523;53.022;-1.178;2023-05-19T03:41:56;18;16;
57289;PMS5003;43523;53.022;-1.178;2023-05-19T03:42:58;16;13;
57289;PMS5003;43523;53.022;-1.178;2023-05-19T03:44:01;19;14;
57289;PMS5003;43523;53.022;-1.178;2023-05-19T03:45:03;17;16;
57289;PMS5003;43523;53.022;-1.178;2023-05-19T03:46:07;18;16;
57289;PMS5003;43523;53.022;-1.178;2023-05-19T03:47:09;13;12;
57289;PMS5003;43523;53.022;-1.178;2023-05-19T03:48:12;20;17;
57289;PMS5003;43523;53.022;-1.178;2023-05-19T03:49:14;12;12;
57289;PMS5003;43523;53.022;-1.178;2023-05-19T03:50:17;17;15;
57289;PMS5003;43523;53.022;-1.178;2023-05-19T03:51:19;14;14;
57289;PMS5003;43523;53.022;-1.178;2023-05-19T03:52:22;14;13;
57289;PMS5003;43523;53.022;-1.178;2023-05-19T03:53:24;24;13;
57289;PMS5003;43523;53.022;-1.178;2023-05-19T03:54:26;20;15;
57289;PMS5003;43523;53.022;-1.178;2023-05-19T03:55:28;17;17;
57289;PMS5003;43523;53.022;-1.178;2023-05-19T03:56:32;20;13;
57289;PMS5003;43523;53.022;-1.178;2023-05-19T03:57:35;15;12;
57289;PMS5003;43523;53.022;-1.178;2023-05-19T03:58:38;17;17;
57289;PMS5003;43523;53.022;-1.178;2023-05-19T03:59:40;16;12;
57289;PMS5003;43523;53.022;-1.178;2023-05-19T04:00:48;17;15;
57289;PMS5003;43523;53.022;-1.178;2023-05-19T04:01:51;18;16;
57289;PMS5003;43523;53.022;-1.178;2023-05-19T04:02:54;17;14;
57289;PMS5003;43523;53.022;-1.178;2023-05-19T04:03:56;14;12;
57289;PMS5003;43523;53.022;-1.178;2023-05-19T04:04:58;14;12;
57289;PMS5003;43523;53.022;-1.178;2023-05-19T04:06:00;18;14;
57289;PMS5003;43523;53.022;-1.178;2023-05-19T04:07:03;14;11;
57289;PMS5003;43523;53.022;-1.178;2023-05-19T04:08:11;17;14;
57289;PMS5003;43523;53.022;-1.178;2023-05-19T04:09:14;13;12;
57289;PMS5003;43523;53.022;-1.178;2023-05-19T04:10:17;16;14;
57289;PMS5003;43523;53.022;-1.178;2023-05-19T04:11:20;14;13;
57289;PMS5003;43523;53.022;-1.178;2023-05-19T04:12:22;15;13;
57289;PMS5003;43523;53.022;-1.178;2023-05-19T04:13:25;16;12;
57289;PMS5003;43523;53.022;-1.178;2023-05-19T04:14:27;24;16;
57289;PMS5003;43523;53.022;-1.178;2023-05-19T04:15:29;16;14;
57289;PMS5003;43523;53.022;-1.178;2023-05-19T04:16:32;12;12;
57289;PMS5003;43523;53.022;-1.178;2023-05-19T04:17:34;16;14;
57289;PMS5003;43523;53.022;-1.178;2023-05-19T04:18:37;17;13;
57289;PMS5003;43523;53.022;-1.178;2023-05-19T04:19:39;17;14;
57289;PMS5003;43523;53.022;-1.178;2023-05-19T04:20:41;22;16;
57289;PMS5003;43523;53.022;-1.178;2023-05-19T04:21:43;20;17;
57289;PMS5003;43523;53.022;-1.178;2023-05-19T04:22:46;18;12;
57289;PMS5003;43523;53.022;-1.178;2023-05-19T04:23:48;15;13;
57289;PMS5003;43523;53.022;-1.178;2023-05-19T04:24:50;14;13;
57289;PMS5003;43523;53.022;-1.178;2023-05-19T04:25:53;14;11;
57289;PMS5003;43523;53.022;-1.178;2023-05-19T04:26:55;18;15;
57289;PMS5003;43523;53.022;-1.178;2023-05-19T04:27:57;16;13;
57289;PMS5003;43523;53.022;-1.178;2023-05-19T04:28:59;15;13;
57289;PMS5003;43523;53.022;-1.178;2023-05-19T04:30:02;19;16;
57289;PMS5003;43523;53.022;-1.178;2023-05-19T04:31:04;15;13;
57289;PMS5003;43523;53.022;-1.178;2023-05-19T04:32:07;12;11;
57289;PMS5003;43523;53.022;-1.178;2023-05-19T04:33:09;14;12;
57289;PMS5003;43523;53.022;-1.178;2023-05-19T04:34:11;18;17;
57289;PMS5003;43523;53.022;-1.178;2023-05-19T04:35:13;14;12;
57289;PMS5003;43523;53.022;-1.178;2023-05-19T04:36:16;14;13;
57289;PMS5003;43523;53.022;-1.178;2023-05-19T04:37:18;12;12;
57289;PMS5003;43523;53.022;-1.178;2023-05-19T04:38:20;16;13;
57289;PMS5003;43523;53.022;-1.178;2023-05-19T04:39:23;19;16;
57289;PMS5003;43523;53.022;-1.178;2023-05-19T04:40:25;16;13;
57289;PMS5003;43523;53.022;-1.178;2023-05-19T04:41:27;19;16;
57289;PMS5003;43523;53.022;-1.178;2023-05-19T04:42:30;14;13;
57289;PMS5003;43523;53.022;-1.178;2023-05-19T04:43:33;18;16;
57289;PMS5003;43523;53.022;-1.178;2023-05-19T04:44:35;14;13;
57289;PMS5003;43523;53.022;-1.178;2023-05-19T04:45:38;16;12;
57289;PMS5003;43523;53.022;-1.178;2023-05-19T04:46:41;14;14;
57289;PMS5003;43523;53.022;-1.178;2023-05-19T04:47:43;16;14;
57289;PMS5003;43523;53.022;-1.178;2023-05-19T04:48:46;13;10;
57289;PMS5003;43523;53.022;-1.178;2023-05-19T04:49:49;16;12;
57289;PMS5003;43523;53.022;-1.178;2023-05-19T04:50:51;17;15;
57289;PMS5003;43523;53.022;-1.178;2023-05-19T04:51:53;14;13;
57289;PMS5003;43523;53.022;-1.178;2023-05-19T04:52:56;13;13;
57289;PMS5003;43523;53.022;-1.178;2023-05-19T04:53:58;14;13;
57289;PMS5003;43523;53.022;-1.178;2023-05-19T04:55:01;11;11;
57289;PMS5003;43523;53.022;-1.178;2023-05-19T04:56:03;15;13;
57289;PMS5003;43523;53.022;-1.178;2023-05-19T04:57:06;12;12;
57289;PMS5003;43523;53.022;-1.178;2023-05-19T04:58:08;19;15;
57289;PMS5003;43523;53.022;-1.178;2023-05-19T04:59:11;14;13;
57289;PMS5003;43523;53.022;-1.178;2023-05-19T05:00:18;15;13;
57289;PMS5003;43523;53.022;-1.178;2023-05-19T05:01:21;16;12;
57289;PMS5003;43523;53.022;-1.178;2023-05-19T05:02:24;14;13;
57289;PMS5003;43523;53.022;-1.178;2023-05-19T05:03:26;13;13;
57289;PMS5003;43523;53.022;-1.178;2023-05-19T05:04:28;16;13;
57289;PMS5003;43523;53.022;-1.178;2023-05-19T05:05:30;11;11;
57289;PMS5003;43523;53.022;-1.178;2023-05-19T05:06:32;12;11;
57289;PMS5003;43523;53.022;-1.178;2023-05-19T05:07:35;14;11;
57289;PMS5003;43523;53.022;-1.178;2023-05-19T05:08:37;12;11;
57289;PMS5003;43523;53.022;-1.178;2023-05-19T05:09:39;11;8;
57289;PMS5003;43523;53.022;-1.178;2023-05-19T05:10:42;10;10;
57289;PMS5003;43523;53.022;-1.178;2023-05-19T05:11:45;11;11;
57289;PMS5003;43523;53.022;-1.178;2023-05-19T05:12:49;12;11;
57289;PMS5003;43523;53.022;-1.178;2023-05-19T05:13:53;13;11;
57289;PMS5003;43523;53.022;-1.178;2023-05-19T05:14:55;14;12;
57289;PMS5003;43523;53.022;-1.178;2023-05-19T05:15:58;11;10;
57289;PMS5003;43523;53.022;-1.178;2023-05-19T05:17:01;10;10;
57289;PMS5003;43523;53.022;-1.178;2023-05-19T05:18:04;17;14;
57289;PMS5003;43523;53.022;-1.178;2023-05-19T05:19:07;15;14;
57289;PMS5003;43523;53.022;-1.178;2023-05-19T05:20:12;13;12;
57289;PMS5003;43523;53.022;-1.178;2023-05-19T05:21:15;16;14;
57289;PMS5003;43523;53.022;-1.178;2023-05-19T05:22:18;20;14;
57289;PMS5003;43523;53.022;-1.178;2023-05-19T05:23:21;16;15;
57289;PMS5003;43523;53.022;-1.178;2023-05-19T05:24:24;14;14;
57289;PMS5003;43523;53.022;-1.178;2023-05-19T05:25:28;18;14;
57289;PMS5003;43523;53.022;-1.178;2023-05-19T05:26:32;15;12;
57289;PMS5003;43523;53.022;-1.178;2023-05-19T05:27:36;13;10;
57289;PMS5003;43523;53.022;-1.178;2023-05-19T05:28:39;14;14;
57289;PMS5003;43523;53.022;-1.178;2023-05-19T05:29:42;16;13;
57289;PMS5003;43523;53.022;-1.178;2023-05-19T05:30:44;14;14;
57289;PMS5003;43523;53.022;-1.178;2023-05-19T05:31:48;16;15;
57289;PMS5003;43523;53.022;-1.178;2023-05-19T05:32:50;13;12;
57289;PMS5003;43523;53.022;-1.178;2023-05-19T05:33:52;12;12;
57289;PMS5003;43523;53.022;-1.178;2023-05-19T05:34:54;17;15;
57289;PMS5003;43523;53.022;-1.178;2023-05-19T05:35:57;11;11;
57289;PMS5003;43523;53.022;-1.178;2023-05-19T05:36:58;17;17;
57289;PMS5003;43523;53.022;-1.178;2023-05-19T05:38:01;19;16;
57289;PMS5003;43523;53.022;-1.178;2023-05-19T05:39:03;17;15;
57289;PMS5003;43523;53.022;-1.178;2023-05-19T05:40:06;16;14;
57289;PMS5003;43523;53.022;-1.178;2023-05-19T05:41:09;16;13;
57289;PMS5003;43523;53.022;-1.178;2023-05-19T05:42:11;13;13;
57289;PMS5003;43523;53.022;-1.178;2023-05-19T05:43:14;16;14;
57289;PMS5003;43523;53.022;-1.178;2023-05-19T05:44:16;17;14;
57289;PMS5003;43523;53.022;-1.178;2023-05-19T05:45:19;16;14;
57289;PMS5003;43523;53.022;-1.178;2023-05-19T05:46:21;19;18;
57289;PMS5003;43523;53.022;-1.178;2023-05-19T05:47:23;27;19;
57289;PMS5003;43523;53.022;-1.178;2023-05-19T05:48:32;22;17;
57289;PMS5003;43523;53.022;-1.178;2023-05-19T05:49:35;17;13;
57289;PMS5003;43523;53.022;-1.178;2023-05-19T05:50:38;17;15;
57289;PMS5003;43523;53.022;-1.178;2023-05-19T05:51:43;16;15;
57289;PMS5003;43523;53.022;-1.178;2023-05-19T05:52:46;15;13;
57289;PMS5003;43523;53.022;-1.178;2023-05-19T05:53:50;13;13;
57289;PMS5003;43523;53.022;-1.178;2023-05-19T05:54:54;16;15;
57289;PMS5003;43523;53.022;-1.178;2023-05-19T05:55:57;18;15;
57289;PMS5003;43523;53.022;-1.178;2023-05-19T05:57:00;22;20;
57289;PMS5003;43523;53.022;-1.178;2023-05-19T05:58:03;19;17;
57289;PMS5003;43523;53.022;-1.178;2023-05-19T05:59:06;21;15;
57289;PMS5003;43523;53.022;-1.178;2023-05-19T06:00:08;19;16;
57289;PMS5003;43523;53.022;-1.178;2023-05-19T06:01:11;15;15;
57289;PMS5003;43523;53.022;-1.178;2023-05-19T06:02:13;14;13;
57289;PMS5003;43523;53.022;-1.178;2023-05-19T06:03:16;17;15;
57289;PMS5003;43523;53.022;-1.178;2023-05-19T06:04:18;19;17;
57289;PMS5003;43523;53.022;-1.178;2023-05-19T06:05:20;16;14;
57289;PMS5003;43523;53.022;-1.178;2023-05-19T06:06:23;16;13;
57289;PMS5003;43523;53.022;-1.178;2023-05-19T06:07:25;19;16;
57289;PMS5003;43523;53.022;-1.178;2023-05-19T06:08:28;16;15;
57289;PMS5003;43523;53.022;-1.178;2023-05-19T06:09:30;17;14;
57289;PMS5003;43523;53.022;-1.178;2023-05-19T06:10:32;24;20;
57289;PMS5003;43523;53.022;-1.178;2023-05-19T06:11:35;15;14;
57289;PMS5003;43523;53.022;-1.178;2023-05-19T06:12:38;15;14;
57289;PMS5003;43523;53.022;-1.178;2023-05-19T06:13:40;19;16;
57289;PMS5003;43523;53.022;-1.178;2023-05-19T06:14:42;20;15;
57289;PMS5003;43523;53.022;-1.178;2023-05-19T06:15:44;16;16;
57289;PMS5003;43523;53.022;-1.178;2023-05-19T06:16:48;20;15;
57289;PMS5003;43523;53.022;-1.178;2023-05-19T06:17:50;16;13;
57289;PMS5003;43523;53.022;-1.178;2023-05-19T06:18:53;14;13;
57289;PMS5003;43523;53.022;-1.178;2023-05-19T06:19:55;17;15;
57289;PMS5003;43523;53.022;-1.178;2023-05-19T06:20:58;20;15;
57289;PMS5003;43523;53.022;-1.178;2023-05-19T06:22:00;20;16;
57289;PMS5003;43523;53.022;-1.178;2023-05-19T06:23:03;20;17;
57289;PMS5003;43523;53.022;-1.178;2023-05-19T06:24:05;20;18;
57289;PMS5003;43523;53.022;-1.178;2023-05-19T06:25:08;15;13;
57289;PMS5003;43523;53.022;-1.178;2023-05-19T06:26:10;21;16;
57289;PMS5003;43523;53.022;-1.178;2023-05-19T06:27:12;21;16;
57289;PMS5003;43523;53.022;-1.178;2023-05-19T06:28:15;17;17;
57289;PMS5003;43523;53.022;-1.178;2023-05-19T06:29:17;16;15;
57289;PMS5003;43523;53.022;-1.178;2023-05-19T06:30:19;20;14;
57289;PMS5003;43523;53.022;-1.178;2023-05-19T06:31:22;17;14;
57289;PMS5003;43523;53.022;-1.178;2023-05-19T06:32:24;18;15;
57289;PMS5003;43523;53.022;-1.178;2023-05-19T06:33:26;24;18;
57289;PMS5003;43523;53.022;-1.178;2023-05-19T06:34:29;23;16;
57289;PMS5003;43523;53.022;-1.178;2023-05-19T06:35:32;22;18;
57289;PMS5003;43523;53.022;-1.178;2023-05-19T06:36:34;19;16;
57289;PMS5003;43523;53.022;-1.178;2023-05-19T06:37:37;17;15;
57289;PMS5003;43523;53.022;-1.178;2023-05-19T06:38:39;16;15;
57289;PMS5003;43523;53.022;-1.178;2023-05-19T06:39:42;19;15;
57289;PMS5003;43523;53.022;-1.178;2023-05-19T06:40:46;23;17;
57289;PMS5003;43523;53.022;-1.178;2023-05-19T06:41:49;17;13;
57289;PMS5003;43523;53.022;-1.178;2023-05-19T06:42:51;17;15;
57289;PMS5003;43523;53.022;-1.178;2023-05-19T06:43:58;18;15;
57289;PMS5003;43523;53.022;-1.178;2023-05-19T06:45:01;22;18;
57289;PMS5003;43523;53.022;-1.178;2023-05-19T06:46:04;17;15;
57289;PMS5003;43523;53.022;-1.178;2023-05-19T06:47:07;17;15;
57289;PMS5003;43523;53.022;-1.178;2023-05-19T06:48:09;18;16;
57289;PMS5003;43523;53.022;-1.178;2023-05-19T06:49:12;19;18;
57289;PMS5003;43523;53.022;-1.178;2023-05-19T06:50:14;18;15;
57289;PMS5003;43523;53.022;-1.178;2023-05-19T06:51:17;18;15;
57289;PMS5003;43523;53.022;-1.178;2023-05-19T06:52:21;19;16;
57289;PMS5003;43523;53.022;-1.178;2023-05-19T06:53:25;21;15;
57289;PMS5003;43523;53.022;-1.178;2023-05-19T06:54:27;16;14;
57289;PMS5003;43523;53.022;-1.178;2023-05-19T06:55:29;16;13;
57289;PMS5003;43523;53.022;-1.178;2023-05-19T06:56:32;15;13;